sensor_id;sensor_type;location;lat;lon;timestamp;temperature;humidity
19924;DHT22;10124;53.068;18.224;2022-09-01T00:00:11;9.60;99.90
19924;DHT22;10124;53.068;18.224;2022-09-01T00:03:01;9.50;99.90
19924;DHT22;10124;53.068;18.224;2022-09-01T00:05:29;9.50;99.90
19924;DHT22;10124;53.068;18.224;2022-09-01T00:07:59;9.50;99.90
19924;DHT22;10124;53.068;18.224;2022-09-01T00:10:30;9.40;1.00
19924;DHT22;10124;53.068;18.224;2022-09-01T00:12:58;9.40;99.90
19924;DHT22;10124;53.068;18.224;2022-09-01T00:15:26;9.30;99.90
19924;DHT22;10124;53.068;18.224;2022-09-01T00:17:54;9.30;99.90
19924;DHT22;10124;53.068;18.224;2022-09-01T00:20:24;9.40;99.90
19924;DHT22;10124;53.068;18.224;2022-09-01T00:22:52;9.50;99.90
19924;DHT22;10124;53.068;18.224;2022-09-01T00:25:20;9.50;99.90
19924;DHT22;10124;53.068;18.224;2022-09-01T00:27:49;9.50;99.90
19924;DHT22;10124;53.068;18.224;2022-09-01T00:30:18;9.30;99.90
19924;DHT22;10124;53.068;18.224;2022-09-01T00:32:46;9.30;99.90
19924;DHT22;10124;53.068;18.224;2022-09-01T00:35:15;9.20;99.90
19924;DHT22;10124;53.068;18.224;2022-09-01T00:37:44;9.20;99.90
19924;DHT22;10124;53.068;18.224;2022-09-01T00:40:14;9.20;99.90
19924;DHT22;10124;53.068;18.224;2022-09-01T00:42:43;9.10;99.90
19924;DHT22;10124;53.068;18.224;2022-09-01T00:45:11;9.00;99.90
19924;DHT22;10124;53.068;18.224;2022-09-01T00:47:42;9.10;1.00
19924;DHT22;10124;53.068;18.224;2022-09-01T00:50:18;9.00;1.00
19924;DHT22;10124;53.068;18.224;2022-09-01T00:52:52;9.00;1.00
19924;DHT22;10124;53.068;18.224;2022-09-01T00:55:31;9.10;1.00
19924;DHT22;10124;53.068;18.224;2022-09-01T00:58:00;9.10;1.00
19924;DHT22;10124;53.068;18.224;2022-09-01T01:00:31;9.10;1.00
19924;DHT22;10124;53.068;18.224;2022-09-01T01:02:59;9.00;1.00
19924;DHT22;10124;53.068;18.224;2022-09-01T01:05:38;9.20;1.00
19924;DHT22;10124;53.068;18.224;2022-09-01T01:08:08;9.00;1.00
19924;DHT22;10124;53.068;18.224;2022-09-01T01:10:40;9.00;1.00
19924;DHT22;10124;53.068;18.224;2022-09-01T01:13:11;9.00;1.00
19924;DHT22;10124;53.068;18.224;2022-09-01T01:15:41;9.30;1.00
19924;DHT22;10124;53.068;18.224;2022-09-01T01:18:14;8.80;99.90
19924;DHT22;10124;53.068;18.224;2022-09-01T01:20:57;8.80;1.00
19924;DHT22;10124;53.068;18.224;2022-09-01T01:24:05;10.30;1.00
19924;DHT22;10124;53.068;18.224;2022-09-01T01:26:37;8.70;1.00
19924;DHT22;10124;53.068;18.224;2022-09-01T01:29:06;8.70;1.00
19924;DHT22;10124;53.068;18.224;2022-09-01T01:31:36;8.70;1.00
19924;DHT22;10124;53.068;18.224;2022-09-01T01:34:05;8.60;1.00
19924;DHT22;10124;53.068;18.224;2022-09-01T01:36:36;8.60;1.00
19924;DHT22;10124;53.068;18.224;2022-09-01T01:39:12;8.60;1.00
19924;DHT22;10124;53.068;18.224;2022-09-01T01:41:42;9.40;1.00
19924;DHT22;10124;53.068;18.224;2022-09-01T01:44:20;8.90;1.00
19924;DHT22;10124;53.068;18.224;2022-09-01T01:46:51;8.50;1.00
19924;DHT22;10124;53.068;18.224;2022-09-01T01:49:24;8.50;1.00
19924;DHT22;10124;53.068;18.224;2022-09-01T01:51:56;8.50;1.00
19924;DHT22;10124;53.068;18.224;2022-09-01T01:54:30;8.50;1.00
19924;DHT22;10124;53.068;18.224;2022-09-01T01:57:00;8.50;1.00
19924;DHT22;10124;53.068;18.224;2022-09-01T01:59:30;8.40;1.00
19924;DHT22;10124;53.068;18.224;2022-09-01T02:02:00;8.40;1.00
19924;DHT22;10124;53.068;18.224;2022-09-01T02:04:35;8.50;1.00
19924;DHT22;10124;53.068;18.224;2022-09-01T02:07:09;9.40;1.00
19924;DHT22;10124;53.068;18.224;2022-09-01T02:09:39;8.40;1.00
19924;DHT22;10124;53.068;18.224;2022-09-01T02:12:07;8.60;1.00
19924;DHT22;10124;53.068;18.224;2022-09-01T02:14:35;8.30;1.00
19924;DHT22;10124;53.068;18.224;2022-09-01T02:17:02;8.20;1.00
19924;DHT22;10124;53.068;18.224;2022-09-01T02:19:35;8.20;1.00
19924;DHT22;10124;53.068;18.224;2022-09-01T02:22:04;8.20;27.40
19924;DHT22;10124;53.068;18.224;2022-09-01T02:24:32;8.30;99.90
19924;DHT22;10124;53.068;18.224;2022-09-01T02:27:00;8.30;1.00
19924;DHT22;10124;53.068;18.224;2022-09-01T02:29:29;8.20;1.00
19924;DHT22;10124;53.068;18.224;2022-09-01T02:32:06;8.20;1.00
19924;DHT22;10124;53.068;18.224;2022-09-01T02:34:34;9.10;99.90
19924;DHT22;10124;53.068;18.224;2022-09-01T02:37:05;8.20;57.80
19924;DHT22;10124;53.068;18.224;2022-09-01T02:39:32;8.20;1.00
19924;DHT22;10124;53.068;18.224;2022-09-01T02:42:00;8.20;99.90
19924;DHT22;10124;53.068;18.224;2022-09-01T02:44:29;8.20;99.90
19924;DHT22;10124;53.068;18.224;2022-09-01T02:46:59;8.30;1.00
19924;DHT22;10124;53.068;18.224;2022-09-01T02:49:28;8.80;1.00
19924;DHT22;10124;53.068;18.224;2022-09-01T02:51:58;8.20;1.00
19924;DHT22;10124;53.068;18.224;2022-09-01T02:54:30;8.20;1.00
19924;DHT22;10124;53.068;18.224;2022-09-01T02:56:59;8.10;1.00
19924;DHT22;10124;53.068;18.224;2022-09-01T02:59:28;8.10;54.10
19924;DHT22;10124;53.068;18.224;2022-09-01T03:02:00;8.10;1.00
19924;DHT22;10124;53.068;18.224;2022-09-01T03:04:28;8.10;1.00
19924;DHT22;10124;53.068;18.224;2022-09-01T03:07:03;8.10;1.00
19924;DHT22;10124;53.068;18.224;2022-09-01T03:09:31;8.10;1.00
19924;DHT22;10124;53.068;18.224;2022-09-01T03:11:58;8.00;1.00
19924;DHT22;10124;53.068;18.224;2022-09-01T03:14:26;8.00;1.00
19924;DHT22;10124;53.068;18.224;2022-09-01T03:16:55;8.00;1.00
19924;DHT22;10124;53.068;18.224;2022-09-01T03:19:23;7.90;1.00
19924;DHT22;10124;53.068;18.224;2022-09-01T03:21:51;7.90;1.00
19924;DHT22;10124;53.068;18.224;2022-09-01T03:24:22;7.90;1.00
19924;DHT22;10124;53.068;18.224;2022-09-01T03:26:51;8.00;99.90
19924;DHT22;10124;53.068;18.224;2022-09-01T03:29:19;8.00;99.90
19924;DHT22;10124;53.068;18.224;2022-09-01T03:31:47;8.30;99.90
19924;DHT22;10124;53.068;18.224;2022-09-01T03:34:16;7.90;99.90
19924;DHT22;10124;53.068;18.224;2022-09-01T03:36:49;7.90;99.90
19924;DHT22;10124;53.068;18.224;2022-09-01T03:39:31;7.90;99.90
19924;DHT22;10124;53.068;18.224;2022-09-01T03:41:59;7.90;99.90
19924;DHT22;10124;53.068;18.224;2022-09-01T03:44:27;7.90;99.90
19924;DHT22;10124;53.068;18.224;2022-09-01T03:46:54;7.80;99.90
19924;DHT22;10124;53.068;18.224;2022-09-01T03:49:24;7.80;99.90
19924;DHT22;10124;53.068;18.224;2022-09-01T03:51:56;7.80;99.90
19924;DHT22;10124;53.068;18.224;2022-09-01T03:54:27;7.80;1.00
19924;DHT22;10124;53.068;18.224;2022-09-01T03:56:58;7.70;1.00
19924;DHT22;10124;53.068;18.224;2022-09-01T03:59:28;7.70;1.00
19924;DHT22;10124;53.068;18.224;2022-09-01T04:01:56;7.70;99.90
19924;DHT22;10124;53.068;18.224;2022-09-01T04:04:24;7.70;1.00
19924;DHT22;10124;53.068;18.224;2022-09-01T04:06:54;7.70;1.00
19924;DHT22;10124;53.068;18.224;2022-09-01T04:09:21;7.70;1.00
19924;DHT22;10124;53.068;18.224;2022-09-01T04:11:49;7.70;1.00
19924;DHT22;10124;53.068;18.224;2022-09-01T04:14:23;7.70;1.00
19924;DHT22;10124;53.068;18.224;2022-09-01T04:16:57;8.20;1.00
19924;DHT22;10124;53.068;18.224;2022-09-01T04:20:01;7.80;1.00
19924;DHT22;10124;53.068;18.224;2022-09-01T04:22:35;7.80;1.00
19924;DHT22;10124;53.068;18.224;2022-09-01T04:25:04;7.80;1.00
19924;DHT22;10124;53.068;18.224;2022-09-01T04:27:33;7.90;1.00
19924;DHT22;10124;53.068;18.224;2022-09-01T04:30:11;7.90;1.00
19924;DHT22;10124;53.068;18.224;2022-09-01T04:32:43;8.00;1.00
19924;DHT22;10124;53.068;18.224;2022-09-01T04:35:13;8.40;1.00
19924;DHT22;10124;53.068;18.224;2022-09-01T04:37:44;7.90;1.00
19924;DHT22;10124;53.068;18.224;2022-09-01T04:40:15;7.90;1.00
19924;DHT22;10124;53.068;18.224;2022-09-01T04:42:45;8.00;1.00
19924;DHT22;10124;53.068;18.224;2022-09-01T04:45:14;7.90;1.00
19924;DHT22;10124;53.068;18.224;2022-09-01T04:47:47;7.90;1.00
19924;DHT22;10124;53.068;18.224;2022-09-01T04:50:17;8.00;1.00
19924;DHT22;10124;53.068;18.224;2022-09-01T04:53:04;7.90;1.00
19924;DHT22;10124;53.068;18.224;2022-09-01T04:55:42;7.90;1.00
19924;DHT22;10124;53.068;18.224;2022-09-01T04:58:14;8.00;1.00
19924;DHT22;10124;53.068;18.224;2022-09-01T05:00:46;8.00;1.00
19924;DHT22;10124;53.068;18.224;2022-09-01T05:03:20;8.10;34.20
19924;DHT22;10124;53.068;18.224;2022-09-01T05:05:55;9.10;56.10
19924;DHT22;10124;53.068;18.224;2022-09-01T05:08:24;8.20;62.80
19924;DHT22;10124;53.068;18.224;2022-09-01T05:10:55;8.30;84.30
19924;DHT22;10124;53.068;18.224;2022-09-01T05:13:55;8.30;99.90
19924;DHT22;10124;53.068;18.224;2022-09-01T05:16:24;8.50;99.90
19924;DHT22;10124;53.068;18.224;2022-09-01T05:18:56;8.50;99.90
19924;DHT22;10124;53.068;18.224;2022-09-01T05:21:29;8.60;99.90
19924;DHT22;10124;53.068;18.224;2022-09-01T05:23:59;8.70;1.00
19924;DHT22;10124;53.068;18.224;2022-09-01T05:26:30;8.80;1.00
19924;DHT22;10124;53.068;18.224;2022-09-01T05:29:01;8.90;1.00
19924;DHT22;10124;53.068;18.224;2022-09-01T05:31:30;9.00;1.00
19924;DHT22;10124;53.068;18.224;2022-09-01T05:34:02;9.10;1.00
19924;DHT22;10124;53.068;18.224;2022-09-01T05:36:30;9.30;1.00
19924;DHT22;10124;53.068;18.224;2022-09-01T05:39:02;9.50;1.00
19924;DHT22;10124;53.068;18.224;2022-09-01T05:41:31;9.60;1.00
19924;DHT22;10124;53.068;18.224;2022-09-01T05:44:03;9.80;1.00
19924;DHT22;10124;53.068;18.224;2022-09-01T05:46:36;10.10;1.00
19924;DHT22;10124;53.068;18.224;2022-09-01T05:49:07;10.90;1.00
19924;DHT22;10124;53.068;18.224;2022-09-01T05:51:47;10.60;1.00
19924;DHT22;10124;53.068;18.224;2022-09-01T05:54:27;10.80;1.00
19924;DHT22;10124;53.068;18.224;2022-09-01T05:56:56;11.10;1.00
19924;DHT22;10124;53.068;18.224;2022-09-01T05:59:45;11.30;1.00
19924;DHT22;10124;53.068;18.224;2022-09-01T06:02:24;11.60;1.00
19924;DHT22;10124;53.068;18.224;2022-09-01T06:04:57;11.90;1.00
19924;DHT22;10124;53.068;18.224;2022-09-01T06:07:31;13.20;1.00
19924;DHT22;10124;53.068;18.224;2022-09-01T06:10:01;12.90;1.00
19924;DHT22;10124;53.068;18.224;2022-09-01T06:12:29;13.50;99.90
19924;DHT22;10124;53.068;18.224;2022-09-01T06:14:56;14.80;1.00
19924;DHT22;10124;53.068;18.224;2022-09-01T06:17:26;14.70;99.90
19924;DHT22;10124;53.068;18.224;2022-09-01T06:19:57;14.70;53.00
19924;DHT22;10124;53.068;18.224;2022-09-01T06:22:27;14.60;1.00
19924;DHT22;10124;53.068;18.224;2022-09-01T06:24:57;14.20;1.00
19924;DHT22;10124;53.068;18.224;2022-09-01T06:27:35;14.20;22.20
19924;DHT22;10124;53.068;18.224;2022-09-01T06:30:10;14.40;50.90
19924;DHT22;10124;53.068;18.224;2022-09-01T06:32:54;14.80;2.50
19924;DHT22;10124;53.068;18.224;2022-09-01T06:35:24;15.90;1.00
19924;DHT22;10124;53.068;18.224;2022-09-01T06:37:57;17.00;1.00
19924;DHT22;10124;53.068;18.224;2022-09-01T06:40:41;17.30;1.00
19924;DHT22;10124;53.068;18.224;2022-09-01T06:43:12;18.20;1.00
19924;DHT22;10124;53.068;18.224;2022-09-01T06:45:47;18.80;1.00
19924;DHT22;10124;53.068;18.224;2022-09-01T06:48:25;18.90;1.00
19924;DHT22;10124;53.068;18.224;2022-09-01T06:51:02;19.00;1.00
19924;DHT22;10124;53.068;18.224;2022-09-01T06:53:52;19.40;1.00
19924;DHT22;10124;53.068;18.224;2022-09-01T06:56:27;19.70;1.00
19924;DHT22;10124;53.068;18.224;2022-09-01T06:59:00;19.60;1.00
19924;DHT22;10124;53.068;18.224;2022-09-01T07:01:33;19.20;1.00
19924;DHT22;10124;53.068;18.224;2022-09-01T07:04:02;18.70;1.00
19924;DHT22;10124;53.068;18.224;2022-09-01T07:06:40;18.50;1.00
19924;DHT22;10124;53.068;18.224;2022-09-01T07:09:57;18.50;1.00
19924;DHT22;10124;53.068;18.224;2022-09-01T07:12:53;18.40;1.00
19924;DHT22;10124;53.068;18.224;2022-09-01T07:15:39;18.00;1.00
19924;DHT22;10124;53.068;18.224;2022-09-01T07:18:32;18.80;1.00
19924;DHT22;10124;53.068;18.224;2022-09-01T07:21:01;18.20;1.00
19924;DHT22;10124;53.068;18.224;2022-09-01T07:23:54;18.40;1.00
19924;DHT22;10124;53.068;18.224;2022-09-01T07:27:07;18.40;1.00
19924;DHT22;10124;53.068;18.224;2022-09-01T07:29:49;18.20;1.00
19924;DHT22;10124;53.068;18.224;2022-09-01T07:32:18;17.70;1.00
19924;DHT22;10124;53.068;18.224;2022-09-01T07:35:06;17.60;1.00
19924;DHT22;10124;53.068;18.224;2022-09-01T07:37:38;17.80;1.00
19924;DHT22;10124;53.068;18.224;2022-09-01T07:40:26;18.00;1.00
19924;DHT22;10124;53.068;18.224;2022-09-01T07:43:47;18.30;1.00
19924;DHT22;10124;53.068;18.224;2022-09-01T07:46:40;18.90;1.00
19924;DHT22;10124;53.068;18.224;2022-09-01T07:49:13;19.90;1.00
19924;DHT22;10124;53.068;18.224;2022-09-01T07:52:02;20.20;1.00
19924;DHT22;10124;53.068;18.224;2022-09-01T07:54:31;21.00;1.00
19924;DHT22;10124;53.068;18.224;2022-09-01T07:57:00;21.60;1.00
19924;DHT22;10124;53.068;18.224;2022-09-01T07:59:29;21.60;1.00
19924;DHT22;10124;53.068;18.224;2022-09-01T08:02:12;21.50;1.00
19924;DHT22;10124;53.068;18.224;2022-09-01T08:04:42;21.60;1.00
19924;DHT22;10124;53.068;18.224;2022-09-01T08:07:09;21.70;1.00
19924;DHT22;10124;53.068;18.224;2022-09-01T08:09:42;21.60;1.00
19924;DHT22;10124;53.068;18.224;2022-09-01T08:12:12;21.80;1.00
19924;DHT22;10124;53.068;18.224;2022-09-01T08:15:00;21.80;1.00
19924;DHT22;10124;53.068;18.224;2022-09-01T08:17:48;21.60;1.00
19924;DHT22;10124;53.068;18.224;2022-09-01T08:20:18;21.60;1.00
19924;DHT22;10124;53.068;18.224;2022-09-01T08:22:58;21.70;1.00
19924;DHT22;10124;53.068;18.224;2022-09-01T08:25:35;21.80;1.00
19924;DHT22;10124;53.068;18.224;2022-09-01T08:28:04;21.60;1.00
19924;DHT22;10124;53.068;18.224;2022-09-01T08:30:33;21.20;1.00
19924;DHT22;10124;53.068;18.224;2022-09-01T08:33:03;21.40;1.00
19924;DHT22;10124;53.068;18.224;2022-09-01T08:35:44;21.80;1.00
19924;DHT22;10124;53.068;18.224;2022-09-01T08:38:13;22.60;1.00
19924;DHT22;10124;53.068;18.224;2022-09-01T08:40:50;22.90;1.00
19924;DHT22;10124;53.068;18.224;2022-09-01T08:45:57;23.40;1.00
19924;DHT22;10124;53.068;18.224;2022-09-01T08:48:40;23.20;1.00
19924;DHT22;10124;53.068;18.224;2022-09-01T08:54:47;23.40;1.00
19924;DHT22;10124;53.068;18.224;2022-09-01T08:57:23;23.40;1.00
19924;DHT22;10124;53.068;18.224;2022-09-01T09:00:14;23.20;1.00
19924;DHT22;10124;53.068;18.224;2022-09-01T09:05:42;22.70;1.00
19924;DHT22;10124;53.068;18.224;2022-09-01T09:08:53;22.30;1.00
19924;DHT22;10124;53.068;18.224;2022-09-01T09:16:54;22.40;1.00
19924;DHT22;10124;53.068;18.224;2022-09-01T09:22:05;22.20;1.00
19924;DHT22;10124;53.068;18.224;2022-09-01T09:24:49;22.10;1.00
19924;DHT22;10124;53.068;18.224;2022-09-01T09:27:26;21.90;1.00
19924;DHT22;10124;53.068;18.224;2022-09-01T09:30:05;21.80;1.00
19924;DHT22;10124;53.068;18.224;2022-09-01T09:35:45;22.10;1.00
19924;DHT22;10124;53.068;18.224;2022-09-01T09:38:18;22.00;1.00
19924;DHT22;10124;53.068;18.224;2022-09-01T09:41:05;21.90;1.00
19924;DHT22;10124;53.068;18.224;2022-09-01T09:46:41;21.80;1.00
19924;DHT22;10124;53.068;18.224;2022-09-01T09:49:31;21.70;1.00
19924;DHT22;10124;53.068;18.224;2022-09-01T09:54:37;21.50;1.00
19924;DHT22;10124;53.068;18.224;2022-09-01T09:57:09;21.40;1.00
19924;DHT22;10124;53.068;18.224;2022-09-01T09:59:42;21.20;1.00
19924;DHT22;10124;53.068;18.224;2022-09-01T10:02:37;21.30;1.00
19924;DHT22;10124;53.068;18.224;2022-09-01T10:05:36;21.50;1.00
19924;DHT22;10124;53.068;18.224;2022-09-01T10:08:07;22.10;1.00
19924;DHT22;10124;53.068;18.224;2022-09-01T10:10:47;22.70;1.00
19924;DHT22;10124;53.068;18.224;2022-09-01T10:13:27;22.70;1.00
19924;DHT22;10124;53.068;18.224;2022-09-01T10:16:02;23.20;1.00
19924;DHT22;10124;53.068;18.224;2022-09-01T10:18:40;24.10;1.00
19924;DHT22;10124;53.068;18.224;2022-09-01T10:21:22;25.90;1.00
19924;DHT22;10124;53.068;18.224;2022-09-01T10:23:53;26.30;1.00
19924;DHT22;10124;53.068;18.224;2022-09-01T10:26:45;27.10;1.00
19924;DHT22;10124;53.068;18.224;2022-09-01T10:29:19;28.10;1.00
19924;DHT22;10124;53.068;18.224;2022-09-01T10:31:48;28.20;1.00
19924;DHT22;10124;53.068;18.224;2022-09-01T10:34:37;27.20;1.00
19924;DHT22;10124;53.068;18.224;2022-09-01T10:37:09;26.40;1.00
19924;DHT22;10124;53.068;18.224;2022-09-01T10:42:48;26.00;1.00
19924;DHT22;10124;53.068;18.224;2022-09-01T10:45:37;26.10;1.00
19924;DHT22;10124;53.068;18.224;2022-09-01T10:53:47;25.40;1.00
19924;DHT22;10124;53.068;18.224;2022-09-01T10:56:40;25.30;1.00
19924;DHT22;10124;53.068;18.224;2022-09-01T10:59:27;24.70;1.00
19924;DHT22;10124;53.068;18.224;2022-09-01T11:02:15;23.90;1.00
19924;DHT22;10124;53.068;18.224;2022-09-01T11:07:35;22.70;1.00
19924;DHT22;10124;53.068;18.224;2022-09-01T11:10:42;22.50;1.00
19924;DHT22;10124;53.068;18.224;2022-09-01T11:16:31;22.80;1.00
19924;DHT22;10124;53.068;18.224;2022-09-01T11:25:10;24.00;1.00
19924;DHT22;10124;53.068;18.224;2022-09-01T11:30:34;24.90;1.00
19924;DHT22;10124;53.068;18.224;2022-09-01T11:35:45;23.90;1.00
19924;DHT22;10124;53.068;18.224;2022-09-01T11:38:18;23.50;1.00
19924;DHT22;10124;53.068;18.224;2022-09-01T11:40:55;23.60;1.00
19924;DHT22;10124;53.068;18.224;2022-09-01T11:43:24;25.40;1.00
19924;DHT22;10124;53.068;18.224;2022-09-01T11:48:30;22.70;1.00
19924;DHT22;10124;53.068;18.224;2022-09-01T11:51:09;22.60;1.00
19924;DHT22;10124;53.068;18.224;2022-09-01T11:53:42;21.90;1.00
19924;DHT22;10124;53.068;18.224;2022-09-01T11:56:19;21.80;1.00
19924;DHT22;10124;53.068;18.224;2022-09-01T11:58:51;21.70;1.00
19924;DHT22;10124;53.068;18.224;2022-09-01T12:01:32;21.90;1.00
19924;DHT22;10124;53.068;18.224;2022-09-01T12:07:01;22.20;1.00
19924;DHT22;10124;53.068;18.224;2022-09-01T12:09:46;22.10;1.00
19924;DHT22;10124;53.068;18.224;2022-09-01T12:12:44;22.80;1.00
19924;DHT22;10124;53.068;18.224;2022-09-01T12:18:51;22.70;1.00
19924;DHT22;10124;53.068;18.224;2022-09-01T12:21:27;22.60;1.00
19924;DHT22;10124;53.068;18.224;2022-09-01T12:26:41;22.30;99.90
19924;DHT22;10124;53.068;18.224;2022-09-01T12:29:10;23.00;1.00
19924;DHT22;10124;53.068;18.224;2022-09-01T12:31:42;23.90;1.00
19924;DHT22;10124;53.068;18.224;2022-09-01T12:37:19;26.20;1.00
19924;DHT22;10124;53.068;18.224;2022-09-01T12:39:51;26.00;1.00
19924;DHT22;10124;53.068;18.224;2022-09-01T12:42:29;25.50;1.00
19924;DHT22;10124;53.068;18.224;2022-09-01T12:45:10;24.80;1.00
19924;DHT22;10124;53.068;18.224;2022-09-01T12:47:43;23.90;1.00
19924;DHT22;10124;53.068;18.224;2022-09-01T12:52:47;21.90;1.00
19924;DHT22;10124;53.068;18.224;2022-09-01T12:55:51;22.20;1.00
19924;DHT22;10124;53.068;18.224;2022-09-01T12:58:21;22.10;1.00
19924;DHT22;10124;53.068;18.224;2022-09-01T13:00:58;22.00;1.00
19924;DHT22;10124;53.068;18.224;2022-09-01T13:03:27;21.90;1.00
19924;DHT22;10124;53.068;18.224;2022-09-01T13:05:57;21.80;1.00
19924;DHT22;10124;53.068;18.224;2022-09-01T13:08:29;21.80;1.00
19924;DHT22;10124;53.068;18.224;2022-09-01T13:11:06;22.20;1.00
19924;DHT22;10124;53.068;18.224;2022-09-01T13:13:38;22.10;1.00
19924;DHT22;10124;53.068;18.224;2022-09-01T13:16:09;21.80;1.00
19924;DHT22;10124;53.068;18.224;2022-09-01T13:18:41;21.60;1.00
19924;DHT22;10124;53.068;18.224;2022-09-01T13:21:31;21.40;1.00
19924;DHT22;10124;53.068;18.224;2022-09-01T13:24:01;21.00;1.00
19924;DHT22;10124;53.068;18.224;2022-09-01T13:26:31;20.50;1.00
19924;DHT22;10124;53.068;18.224;2022-09-01T13:28:59;20.50;1.00
19924;DHT22;10124;53.068;18.224;2022-09-01T13:49:36;20.30;1.00
19924;DHT22;10124;53.068;18.224;2022-09-01T13:52:24;19.80;1.00
19924;DHT22;10124;53.068;18.224;2022-09-01T13:54:52;20.40;1.00
19924;DHT22;10124;53.068;18.224;2022-09-01T13:57:20;20.50;1.00
19924;DHT22;10124;53.068;18.224;2022-09-01T14:02:17;20.50;1.00
19924;DHT22;10124;53.068;18.224;2022-09-01T14:09:44;19.40;1.00
19924;DHT22;10124;53.068;18.224;2022-09-01T14:12:12;19.50;1.00
19924;DHT22;10124;53.068;18.224;2022-09-01T14:17:28;19.40;1.00
19924;DHT22;10124;53.068;18.224;2022-09-01T14:22:23;18.10;1.00
19924;DHT22;10124;53.068;18.224;2022-09-01T14:27:18;18.20;1.00
19924;DHT22;10124;53.068;18.224;2022-09-01T14:29:50;18.40;1.00
19924;DHT22;10124;53.068;18.224;2022-09-01T14:34:53;18.10;1.00
19924;DHT22;10124;53.068;18.224;2022-09-01T14:37:22;17.60;1.00
19924;DHT22;10124;53.068;18.224;2022-09-01T14:39:51;18.10;1.00
19924;DHT22;10124;53.068;18.224;2022-09-01T14:44:47;18.30;29.20
19924;DHT22;10124;53.068;18.224;2022-09-01T14:47:14;18.00;1.00
19924;DHT22;10124;53.068;18.224;2022-09-01T14:49:45;18.60;1.00
19924;DHT22;10124;53.068;18.224;2022-09-01T14:52:14;18.40;1.00
19924;DHT22;10124;53.068;18.224;2022-09-01T14:54:45;18.50;74.50
19924;DHT22;10124;53.068;18.224;2022-09-01T14:57:13;18.20;99.90
19924;DHT22;10124;53.068;18.224;2022-09-01T15:00:03;18.30;99.90
19924;DHT22;10124;53.068;18.224;2022-09-01T15:02:32;18.10;99.90
19924;DHT22;10124;53.068;18.224;2022-09-01T15:04:59;18.60;1.00
19924;DHT22;10124;53.068;18.224;2022-09-01T15:12:25;18.80;1.00
19924;DHT22;10124;53.068;18.224;2022-09-01T15:14:58;18.40;99.90
19924;DHT22;10124;53.068;18.224;2022-09-01T15:17:26;18.80;1.00
19924;DHT22;10124;53.068;18.224;2022-09-01T15:22:22;19.10;99.90
19924;DHT22;10124;53.068;18.224;2022-09-01T15:24:50;19.10;88.70
19924;DHT22;10124;53.068;18.224;2022-09-01T15:32:15;19.00;1.00
19924;DHT22;10124;53.068;18.224;2022-09-01T15:34:55;19.00;1.00
19924;DHT22;10124;53.068;18.224;2022-09-01T15:37:24;19.00;1.00
19924;DHT22;10124;53.068;18.224;2022-09-01T15:39:58;19.00;1.00
19924;DHT22;10124;53.068;18.224;2022-09-01T15:42:28;19.00;1.00
19924;DHT22;10124;53.068;18.224;2022-09-01T15:44:56;19.00;1.00
19924;DHT22;10124;53.068;18.224;2022-09-01T15:47:33;19.10;1.00
19924;DHT22;10124;53.068;18.224;2022-09-01T15:50:07;18.90;1.00
19924;DHT22;10124;53.068;18.224;2022-09-01T15:52:52;18.80;1.00
19924;DHT22;10124;53.068;18.224;2022-09-01T15:55:24;18.80;1.00
19924;DHT22;10124;53.068;18.224;2022-09-01T15:57:52;18.70;1.00
19924;DHT22;10124;53.068;18.224;2022-09-01T16:00:23;18.70;1.00
19924;DHT22;10124;53.068;18.224;2022-09-01T16:03:05;18.70;1.00
19924;DHT22;10124;53.068;18.224;2022-09-01T16:05:36;18.60;1.00
19924;DHT22;10124;53.068;18.224;2022-09-01T16:08:06;18.60;1.00
19924;DHT22;10124;53.068;18.224;2022-09-01T16:10:37;18.40;1.00
19924;DHT22;10124;53.068;18.224;2022-09-01T16:13:07;18.40;1.00
19924;DHT22;10124;53.068;18.224;2022-09-01T16:15:45;18.30;1.00
19924;DHT22;10124;53.068;18.224;2022-09-01T16:18:27;18.20;1.00
19924;DHT22;10124;53.068;18.224;2022-09-01T16:21:07;18.20;1.00
19924;DHT22;10124;53.068;18.224;2022-09-01T16:23:47;18.20;1.00
19924;DHT22;10124;53.068;18.224;2022-09-01T16:26:20;18.00;1.00
19924;DHT22;10124;53.068;18.224;2022-09-01T16:28:54;18.00;1.00
19924;DHT22;10124;53.068;18.224;2022-09-01T16:31:25;17.80;1.00
19924;DHT22;10124;53.068;18.224;2022-09-01T16:33:55;17.70;1.00
19924;DHT22;10124;53.068;18.224;2022-09-01T16:39:39;17.60;1.00
19924;DHT22;10124;53.068;18.224;2022-09-01T16:44:54;17.40;1.00
19924;DHT22;10124;53.068;18.224;2022-09-01T16:47:58;17.40;1.00
19924;DHT22;10124;53.068;18.224;2022-09-01T16:50:33;17.20;1.00
19924;DHT22;10124;53.068;18.224;2022-09-01T16:56:06;17.10;1.00
19924;DHT22;10124;53.068;18.224;2022-09-01T17:01:26;16.90;1.00
19924;DHT22;10124;53.068;18.224;2022-09-01T17:04:37;16.90;1.00
19924;DHT22;10124;53.068;18.224;2022-09-01T17:12:49;16.60;1.00
19924;DHT22;10124;53.068;18.224;2022-09-01T17:20:40;16.30;1.00
19924;DHT22;10124;53.068;18.224;2022-09-01T17:23:25;16.30;1.00
19924;DHT22;10124;53.068;18.224;2022-09-01T17:26:04;16.10;1.00
19924;DHT22;10124;53.068;18.224;2022-09-01T17:28:37;16.10;1.00
19924;DHT22;10124;53.068;18.224;2022-09-01T17:31:11;16.10;1.00
19924;DHT22;10124;53.068;18.224;2022-09-01T17:45:33;15.50;1.00
19924;DHT22;10124;53.068;18.224;2022-09-01T17:51:29;15.30;1.00
19924;DHT22;10124;53.068;18.224;2022-09-01T17:54:08;15.10;1.00
19924;DHT22;10124;53.068;18.224;2022-09-01T18:02:22;14.70;1.00
19924;DHT22;10124;53.068;18.224;2022-09-01T18:07:55;14.50;1.00
19924;DHT22;10124;53.068;18.224;2022-09-01T18:10:40;14.40;1.00
19924;DHT22;10124;53.068;18.224;2022-09-01T18:16:28;14.20;1.00
19924;DHT22;10124;53.068;18.224;2022-09-01T18:19:02;14.10;1.00
19924;DHT22;10124;53.068;18.224;2022-09-01T18:21:35;14.00;1.00
19924;DHT22;10124;53.068;18.224;2022-09-01T18:24:17;13.90;1.00
19924;DHT22;10124;53.068;18.224;2022-09-01T18:26:50;13.80;1.00
19924;DHT22;10124;53.068;18.224;2022-09-01T18:29:19;13.70;1.00
19924;DHT22;10124;53.068;18.224;2022-09-01T18:32:28;13.60;1.00
19924;DHT22;10124;53.068;18.224;2022-09-01T18:35:33;13.50;1.00
19924;DHT22;10124;53.068;18.224;2022-09-01T18:38:17;13.40;1.00
19924;DHT22;10124;53.068;18.224;2022-09-01T18:43:44;13.50;1.00
19924;DHT22;10124;53.068;18.224;2022-09-01T18:46:26;13.20;1.00
19924;DHT22;10124;53.068;18.224;2022-09-01T18:54:15;13.00;1.00
19924;DHT22;10124;53.068;18.224;2022-09-01T18:56:55;12.90;1.00
19924;DHT22;10124;53.068;18.224;2022-09-01T19:10:39;12.40;1.00
19924;DHT22;10124;53.068;18.224;2022-09-01T19:13:37;12.30;1.00
19924;DHT22;10124;53.068;18.224;2022-09-01T19:21:54;12.10;1.00
19924;DHT22;10124;53.068;18.224;2022-09-01T19:24:32;12.00;1.00
19924;DHT22;10124;53.068;18.224;2022-09-01T19:27:15;12.00;1.00
19924;DHT22;10124;53.068;18.224;2022-09-01T19:29:47;11.90;1.00
19924;DHT22;10124;53.068;18.224;2022-09-01T19:32:19;11.90;1.00
19924;DHT22;10124;53.068;18.224;2022-09-01T19:34:54;11.90;1.00
19924;DHT22;10124;53.068;18.224;2022-09-01T19:37:24;11.90;1.00